sensor_id;sensor_type;location;lat;lon;timestamp;P1;durP1;ratioP1;P2;durP2;ratioP2
4519;SDS011;2272;49.226;8.108;2023-03-01T00:00:43;17.03;;;10.03;;
4519;SDS011;2272;49.226;8.108;2023-03-01T00:03:11;13.30;;;8.93;;
4519;SDS011;2272;49.226;8.108;2023-03-01T00:05:43;14.03;;;8.83;;
4519;SDS011;2272;49.226;8.108;2023-03-01T00:08:10;14.47;;;8.63;;
4519;SDS011;2272;49.226;8.108;2023-03-01T00:10:38;14.97;;;9.20;;
4519;SDS011;2272;49.226;8.108;2023-03-01T00:13:05;19.80;;;10.20;;
4519;SDS011;2272;49.226;8.108;2023-03-01T00:15:32;18.60;;;9.87;;
4519;SDS011;2272;49.226;8.108;2023-03-01T00:17:59;13.90;;;9.30;;
4519;SDS011;2272;49.226;8.108;2023-03-01T00:20:26;16.00;;;9.00;;
4519;SDS011;2272;49.226;8.108;2023-03-01T00:22:53;14.30;;;9.50;;
4519;SDS011;2272;49.226;8.108;2023-03-01T00:25:19;12.10;;;8.27;;
4519;SDS011;2272;49.226;8.108;2023-03-01T00:27:47;15.23;;;8.70;;
4519;SDS011;2272;49.226;8.108;2023-03-01T00:30:14;13.50;;;9.30;;
4519;SDS011;2272;49.226;8.108;2023-03-01T00:32:41;11.23;;;8.50;;
4519;SDS011;2272;49.226;8.108;2023-03-01T00:35:08;11.07;;;7.70;;
4519;SDS011;2272;49.226;8.108;2023-03-01T00:37:35;21.23;;;10.00;;
4519;SDS011;2272;49.226;8.108;2023-03-01T00:40:01;18.30;;;9.53;;
4519;SDS011;2272;49.226;8.108;2023-03-01T00:42:31;12.87;;;8.97;;
4519;SDS011;2272;49.226;8.108;2023-03-01T00:44:59;15.13;;;8.97;;
4519;SDS011;2272;49.226;8.108;2023-03-01T00:47:27;16.80;;;9.40;;
4519;SDS011;2272;49.226;8.108;2023-03-01T00:49:54;13.80;;;8.70;;
4519;SDS011;2272;49.226;8.108;2023-03-01T00:52:21;15.63;;;9.40;;
4519;SDS011;2272;49.226;8.108;2023-03-01T00:54:48;13.60;;;9.37;;
4519;SDS011;2272;49.226;8.108;2023-03-01T00:57:17;16.60;;;9.07;;
4519;SDS011;2272;49.226;8.108;2023-03-01T00:59:44;13.53;;;8.93;;
4519;SDS011;2272;49.226;8.108;2023-03-01T01:02:12;19.10;;;9.83;;
4519;SDS011;2272;49.226;8.108;2023-03-01T01:04:39;18.40;;;9.50;;
4519;SDS011;2272;49.226;8.108;2023-03-01T01:07:05;16.17;;;9.47;;
4519;SDS011;2272;49.226;8.108;2023-03-01T01:09:32;17.67;;;8.90;;
4519;SDS011;2272;49.226;8.108;2023-03-01T01:11:59;18.57;;;11.20;;
4519;SDS011;2272;49.226;8.108;2023-03-01T01:14:26;16.20;;;10.50;;
4519;SDS011;2272;49.226;8.108;2023-03-01T01:16:52;21.80;;;10.40;;
4519;SDS011;2272;49.226;8.108;2023-03-01T01:19:21;14.17;;;9.40;;
4519;SDS011;2272;49.226;8.108;2023-03-01T01:21:48;15.60;;;10.57;;
4519;SDS011;2272;49.226;8.108;2023-03-01T01:24:15;20.67;;;10.67;;
4519;SDS011;2272;49.226;8.108;2023-03-01T01:26:43;13.13;;;9.00;;
4519;SDS011;2272;49.226;8.108;2023-03-01T01:29:10;16.23;;;10.27;;
4519;SDS011;2272;49.226;8.108;2023-03-01T01:31:38;20.20;;;10.67;;
4519;SDS011;2272;49.226;8.108;2023-03-01T01:34:07;13.63;;;8.83;;
4519;SDS011;2272;49.226;8.108;2023-03-01T01:36:39;15.90;;;9.57;;
4519;SDS011;2272;49.226;8.108;2023-03-01T01:39:06;23.93;;;10.77;;
4519;SDS011;2272;49.226;8.108;2023-03-01T01:41:36;15.20;;;10.17;;
4519;SDS011;2272;49.226;8.108;2023-03-01T01:44:10;20.20;;;10.13;;
4519;SDS011;2272;49.226;8.108;2023-03-01T01:46:43;23.50;;;10.97;;
4519;SDS011;2272;49.226;8.108;2023-03-01T01:49:16;20.80;;;9.97;;
4519;SDS011;2272;49.226;8.108;2023-03-01T01:51:51;15.60;;;9.73;;
4519;SDS011;2272;49.226;8.108;2023-03-01T01:54:23;15.57;;;10.67;;
4519;SDS011;2272;49.226;8.108;2023-03-01T01:56:54;19.40;;;12.30;;
4519;SDS011;2272;49.226;8.108;2023-03-01T01:59:24;28.70;;;13.30;;
4519;SDS011;2272;49.226;8.108;2023-03-01T02:01:53;18.50;;;10.70;;
4519;SDS011;2272;49.226;8.108;2023-03-01T02:04:21;17.10;;;10.90;;
4519;SDS011;2272;49.226;8.108;2023-03-01T02:06:51;19.07;;;10.87;;
4519;SDS011;2272;49.226;8.108;2023-03-01T02:09:23;16.23;;;10.00;;
4519;SDS011;2272;49.226;8.108;2023-03-01T02:11:51;17.70;;;10.13;;
4519;SDS011;2272;49.226;8.108;2023-03-01T02:14:19;18.70;;;11.17;;
4519;SDS011;2272;49.226;8.108;2023-03-01T02:16:46;21.90;;;10.93;;
4519;SDS011;2272;49.226;8.108;2023-03-01T02:19:14;24.50;;;10.03;;
4519;SDS011;2272;49.226;8.108;2023-03-01T02:21:52;22.73;;;11.50;;
4519;SDS011;2272;49.226;8.108;2023-03-01T02:24:28;17.40;;;11.27;;
4519;SDS011;2272;49.226;8.108;2023-03-01T02:27:00;17.77;;;11.63;;
4519;SDS011;2272;49.226;8.108;2023-03-01T02:29:28;22.13;;;12.33;;
4519;SDS011;2272;49.226;8.108;2023-03-01T02:31:55;17.83;;;9.87;;
4519;SDS011;2272;49.226;8.108;2023-03-01T02:34:23;18.43;;;10.80;;
4519;SDS011;2272;49.226;8.108;2023-03-01T02:36:52;19.37;;;10.50;;
4519;SDS011;2272;49.226;8.108;2023-03-01T02:39:23;19.23;;;11.67;;
4519;SDS011;2272;49.226;8.108;2023-03-01T02:41:54;20.60;;;11.30;;
4519;SDS011;2272;49.226;8.108;2023-03-01T02:44:22;26.90;;;12.70;;
4519;SDS011;2272;49.226;8.108;2023-03-01T02:46:51;19.97;;;11.60;;
4519;SDS011;2272;49.226;8.108;2023-03-01T02:49:20;25.63;;;11.97;;
4519;SDS011;2272;49.226;8.108;2023-03-01T02:51:54;18.00;;;11.13;;
4519;SDS011;2272;49.226;8.108;2023-03-01T02:54:46;19.20;;;10.97;;
4519;SDS011;2272;49.226;8.108;2023-03-01T02:57:16;19.67;;;11.57;;
4519;SDS011;2272;49.226;8.108;2023-03-01T02:59:43;19.10;;;11.17;;
4519;SDS011;2272;49.226;8.108;2023-03-01T03:02:19;17.20;;;10.50;;
4519;SDS011;2272;49.226;8.108;2023-03-01T03:05:00;21.43;;;11.30;;
4519;SDS011;2272;49.226;8.108;2023-03-01T03:07:28;18.83;;;11.60;;
4519;SDS011;2272;49.226;8.108;2023-03-01T03:09:55;19.90;;;10.93;;
4519;SDS011;2272;49.226;8.108;2023-03-01T03:12:21;20.80;;;11.77;;
4519;SDS011;2272;49.226;8.108;2023-03-01T03:14:48;20.03;;;10.93;;
4519;SDS011;2272;49.226;8.108;2023-03-01T03:17:15;26.40;;;12.63;;
4519;SDS011;2272;49.226;8.108;2023-03-01T03:19:43;21.50;;;12.30;;
4519;SDS011;2272;49.226;8.108;2023-03-01T03:22:10;14.87;;;10.83;;
4519;SDS011;2272;49.226;8.108;2023-03-01T03:24:37;19.27;;;10.90;;
4519;SDS011;2272;49.226;8.108;2023-03-01T03:27:04;22.00;;;12.30;;
4519;SDS011;2272;49.226;8.108;2023-03-01T03:29:31;20.30;;;11.00;;
4519;SDS011;2272;49.226;8.108;2023-03-01T03:31:58;17.40;;;12.03;;
4519;SDS011;2272;49.226;8.108;2023-03-01T03:34:25;18.80;;;11.73;;
4519;SDS011;2272;49.226;8.108;2023-03-01T03:36:54;19.70;;;12.07;;
4519;SDS011;2272;49.226;8.108;2023-03-01T03:39:24;22.40;;;12.40;;
4519;SDS011;2272;49.226;8.108;2023-03-01T03:41:51;17.70;;;11.17;;
4519;SDS011;2272;49.226;8.108;2023-03-01T03:44:18;20.17;;;12.50;;
4519;SDS011;2272;49.226;8.108;2023-03-01T03:46:45;24.63;;;12.00;;
4519;SDS011;2272;49.226;8.108;2023-03-01T03:49:12;26.57;;;13.40;;
4519;SDS011;2272;49.226;8.108;2023-03-01T03:51:38;18.77;;;10.83;;
4519;SDS011;2272;49.226;8.108;2023-03-01T03:54:07;23.83;;;12.53;;
4519;SDS011;2272;49.226;8.108;2023-03-01T03:56:34;21.33;;;12.07;;
4519;SDS011;2272;49.226;8.108;2023-03-01T03:59:00;19.40;;;11.60;;
4519;SDS011;2272;49.226;8.108;2023-03-01T04:01:27;19.00;;;11.17;;
4519;SDS011;2272;49.226;8.108;2023-03-01T04:03:53;20.57;;;12.83;;
4519;SDS011;2272;49.226;8.108;2023-03-01T04:06:20;20.23;;;10.77;;
4519;SDS011;2272;49.226;8.108;2023-03-01T04:08:47;20.80;;;12.27;;
4519;SDS011;2272;49.226;8.108;2023-03-01T04:11:17;30.47;;;13.23;;
4519;SDS011;2272;49.226;8.108;2023-03-01T04:13:53;21.97;;;13.17;;
4519;SDS011;2272;49.226;8.108;2023-03-01T04:16:21;28.90;;;15.37;;
4519;SDS011;2272;49.226;8.108;2023-03-01T04:18:48;18.27;;;11.53;;
4519;SDS011;2272;49.226;8.108;2023-03-01T04:21:15;22.00;;;12.93;;
4519;SDS011;2272;49.226;8.108;2023-03-01T04:23:42;20.40;;;13.13;;
4519;SDS011;2272;49.226;8.108;2023-03-01T04:26:08;16.90;;;11.13;;
4519;SDS011;2272;49.226;8.108;2023-03-01T04:28:37;23.90;;;11.93;;
4519;SDS011;2272;49.226;8.108;2023-03-01T04:31:08;23.47;;;12.63;;
4519;SDS011;2272;49.226;8.108;2023-03-01T04:33:39;24.07;;;13.13;;
4519;SDS011;2272;49.226;8.108;2023-03-01T04:36:07;20.57;;;11.53;;
4519;SDS011;2272;49.226;8.108;2023-03-01T04:38:35;19.40;;;11.47;;
4519;SDS011;2272;49.226;8.108;2023-03-01T04:41:03;23.57;;;12.10;;
4519;SDS011;2272;49.226;8.108;2023-03-01T04:43:30;24.57;;;12.70;;
4519;SDS011;2272;49.226;8.108;2023-03-01T04:46:01;17.27;;;11.30;;
4519;SDS011;2272;49.226;8.108;2023-03-01T04:48:28;24.93;;;13.10;;
4519;SDS011;2272;49.226;8.108;2023-03-01T04:50:55;18.57;;;12.30;;
4519;SDS011;2272;49.226;8.108;2023-03-01T04:53:22;23.47;;;13.47;;
4519;SDS011;2272;49.226;8.108;2023-03-01T04:55:49;19.90;;;11.57;;
4519;SDS011;2272;49.226;8.108;2023-03-01T04:58:16;22.63;;;13.23;;
4519;SDS011;2272;49.226;8.108;2023-03-01T05:00:43;18.50;;;12.37;;
4519;SDS011;2272;49.226;8.108;2023-03-01T05:03:11;24.80;;;14.00;;
4519;SDS011;2272;49.226;8.108;2023-03-01T05:05:43;22.90;;;12.73;;
4519;SDS011;2272;49.226;8.108;2023-03-01T05:08:11;25.40;;;11.53;;
4519;SDS011;2272;49.226;8.108;2023-03-01T05:10:43;20.70;;;12.20;;
4519;SDS011;2272;49.226;8.108;2023-03-01T05:13:12;28.13;;;12.60;;
4519;SDS011;2272;49.226;8.108;2023-03-01T05:15:40;19.20;;;12.20;;
4519;SDS011;2272;49.226;8.108;2023-03-01T05:18:07;28.30;;;13.50;;
4519;SDS011;2272;49.226;8.108;2023-03-01T05:20:37;21.90;;;14.23;;
4519;SDS011;2272;49.226;8.108;2023-03-01T05:23:04;20.47;;;12.67;;
4519;SDS011;2272;49.226;8.108;2023-03-01T05:25:31;21.87;;;13.67;;
4519;SDS011;2272;49.226;8.108;2023-03-01T05:27:59;22.60;;;12.13;;
4519;SDS011;2272;49.226;8.108;2023-03-01T05:30:29;22.90;;;12.43;;
4519;SDS011;2272;49.226;8.108;2023-03-01T05:32:56;29.37;;;13.57;;
4519;SDS011;2272;49.226;8.108;2023-03-01T05:35:23;36.47;;;14.30;;
4519;SDS011;2272;49.226;8.108;2023-03-01T05:37:51;23.80;;;12.53;;
4519;SDS011;2272;49.226;8.108;2023-03-01T05:40:20;21.93;;;12.90;;
4519;SDS011;2272;49.226;8.108;2023-03-01T05:42:50;23.13;;;13.80;;
4519;SDS011;2272;49.226;8.108;2023-03-01T05:45:19;25.50;;;14.27;;
4519;SDS011;2272;49.226;8.108;2023-03-01T05:47:48;21.63;;;12.20;;
4519;SDS011;2272;49.226;8.108;2023-03-01T05:50:16;29.03;;;14.53;;
4519;SDS011;2272;49.226;8.108;2023-03-01T05:52:45;22.33;;;12.63;;
4519;SDS011;2272;49.226;8.108;2023-03-01T05:55:14;18.63;;;12.37;;
4519;SDS011;2272;49.226;8.108;2023-03-01T05:57:42;22.70;;;13.43;;
4519;SDS011;2272;49.226;8.108;2023-03-01T06:00:10;24.80;;;13.37;;
4519;SDS011;2272;49.226;8.108;2023-03-01T06:02:38;22.83;;;13.77;;
4519;SDS011;2272;49.226;8.108;2023-03-01T06:05:05;19.87;;;12.80;;
4519;SDS011;2272;49.226;8.108;2023-03-01T06:07:33;25.67;;;14.57;;
4519;SDS011;2272;49.226;8.108;2023-03-01T06:10:00;29.57;;;15.17;;
4519;SDS011;2272;49.226;8.108;2023-03-01T06:12:31;28.77;;;14.90;;
4519;SDS011;2272;49.226;8.108;2023-03-01T06:14:58;28.43;;;13.80;;
4519;SDS011;2272;49.226;8.108;2023-03-01T06:17:25;18.43;;;12.43;;
4519;SDS011;2272;49.226;8.108;2023-03-01T06:19:55;25.87;;;14.13;;
4519;SDS011;2272;49.226;8.108;2023-03-01T06:22:21;26.53;;;14.10;;
4519;SDS011;2272;49.226;8.108;2023-03-01T06:24:48;25.07;;;14.53;;
4519;SDS011;2272;49.226;8.108;2023-03-01T06:27:15;28.43;;;13.20;;
4519;SDS011;2272;49.226;8.108;2023-03-01T06:29:43;29.13;;;13.97;;
4519;SDS011;2272;49.226;8.108;2023-03-01T06:32:10;23.30;;;12.87;;
4519;SDS011;2272;49.226;8.108;2023-03-01T06:34:37;29.30;;;13.50;;
4519;SDS011;2272;49.226;8.108;2023-03-01T06:37:03;26.07;;;14.23;;
4519;SDS011;2272;49.226;8.108;2023-03-01T06:39:30;38.37;;;16.00;;
4519;SDS011;2272;49.226;8.108;2023-03-01T06:41:57;24.20;;;13.70;;
4519;SDS011;2272;49.226;8.108;2023-03-01T06:44:24;24.10;;;13.27;;
4519;SDS011;2272;49.226;8.108;2023-03-01T06:46:52;27.73;;;13.93;;
4519;SDS011;2272;49.226;8.108;2023-03-01T06:49:19;20.70;;;12.93;;
4519;SDS011;2272;49.226;8.108;2023-03-01T06:51:46;27.40;;;13.63;;
4519;SDS011;2272;49.226;8.108;2023-03-01T06:54:12;27.60;;;13.40;;
4519;SDS011;2272;49.226;8.108;2023-03-01T06:56:40;27.77;;;13.63;;
4519;SDS011;2272;49.226;8.108;2023-03-01T06:59:06;25.80;;;13.80;;
4519;SDS011;2272;49.226;8.108;2023-03-01T07:01:33;27.40;;;13.73;;
4519;SDS011;2272;49.226;8.108;2023-03-01T07:04:01;23.30;;;14.40;;
4519;SDS011;2272;49.226;8.108;2023-03-01T07:06:28;24.87;;;14.20;;
4519;SDS011;2272;49.226;8.108;2023-03-01T07:08:54;23.73;;;13.30;;
4519;SDS011;2272;49.226;8.108;2023-03-01T07:11:21;26.87;;;14.17;;
4519;SDS011;2272;49.226;8.108;2023-03-01T07:13:48;25.73;;;14.50;;
4519;SDS011;2272;49.226;8.108;2023-03-01T07:16:15;22.77;;;13.80;;
4519;SDS011;2272;49.226;8.108;2023-03-01T07:18:41;24.70;;;14.00;;
4519;SDS011;2272;49.226;8.108;2023-03-01T07:21:11;26.33;;;14.47;;
4519;SDS011;2272;49.226;8.108;2023-03-01T07:23:39;27.13;;;14.43;;
4519;SDS011;2272;49.226;8.108;2023-03-01T07:26:06;25.27;;;15.00;;
4519;SDS011;2272;49.226;8.108;2023-03-01T07:28:33;26.10;;;14.40;;
4519;SDS011;2272;49.226;8.108;2023-03-01T07:31:03;22.47;;;13.17;;
4519;SDS011;2272;49.226;8.108;2023-03-01T07:33:31;25.53;;;13.73;;
4519;SDS011;2272;49.226;8.108;2023-03-01T07:35:58;22.63;;;12.97;;
4519;SDS011;2272;49.226;8.108;2023-03-01T07:38:26;24.17;;;13.70;;
4519;SDS011;2272;49.226;8.108;2023-03-01T07:40:53;26.13;;;13.97;;
4519;SDS011;2272;49.226;8.108;2023-03-01T07:43:23;23.33;;;14.57;;
4519;SDS011;2272;49.226;8.108;2023-03-01T07:45:50;25.53;;;14.93;;
4519;SDS011;2272;49.226;8.108;2023-03-01T07:48:17;23.87;;;13.70;;
4519;SDS011;2272;49.226;8.108;2023-03-01T07:50:43;20.43;;;12.87;;
4519;SDS011;2272;49.226;8.108;2023-03-01T07:53:10;31.40;;;13.80;;
4519;SDS011;2272;49.226;8.108;2023-03-01T07:55:38;21.67;;;13.80;;
4519;SDS011;2272;49.226;8.108;2023-03-01T07:58:05;28.47;;;15.30;;
4519;SDS011;2272;49.226;8.108;2023-03-01T08:00:31;22.27;;;13.40;;
4519;SDS011;2272;49.226;8.108;2023-03-01T08:02:58;26.43;;;14.40;;
4519;SDS011;2272;49.226;8.108;2023-03-01T08:05:26;26.00;;;15.17;;
4519;SDS011;2272;49.226;8.108;2023-03-01T08:07:52;24.10;;;14.30;;
4519;SDS011;2272;49.226;8.108;2023-03-01T08:10:19;24.03;;;14.60;;
4519;SDS011;2272;49.226;8.108;2023-03-01T08:12:47;28.30;;;16.17;;
4519;SDS011;2272;49.226;8.108;2023-03-01T08:15:16;22.87;;;13.60;;
4519;SDS011;2272;49.226;8.108;2023-03-01T08:17:43;23.97;;;15.13;;
4519;SDS011;2272;49.226;8.108;2023-03-01T08:20:10;24.97;;;14.13;;
4519;SDS011;2272;49.226;8.108;2023-03-01T08:22:37;21.67;;;14.37;;
4519;SDS011;2272;49.226;8.108;2023-03-01T08:25:04;26.23;;;14.47;;
4519;SDS011;2272;49.226;8.108;2023-03-01T08:27:31;25.97;;;14.50;;
4519;SDS011;2272;49.226;8.108;2023-03-01T08:29:59;24.57;;;14.10;;
4519;SDS011;2272;49.226;8.108;2023-03-01T08:32:26;24.40;;;14.23;;
4519;SDS011;2272;49.226;8.108;2023-03-01T08:34:53;35.13;;;15.47;;
4519;SDS011;2272;49.226;8.108;2023-03-01T08:37:19;26.13;;;15.73;;
4519;SDS011;2272;49.226;8.108;2023-03-01T08:39:46;24.60;;;13.83;;
4519;SDS011;2272;49.226;8.108;2023-03-01T08:42:13;34.43;;;15.33;;
4519;SDS011;2272;49.226;8.108;2023-03-01T08:44:40;29.10;;;15.80;;
4519;SDS011;2272;49.226;8.108;2023-03-01T08:47:08;30.13;;;15.57;;
4519;SDS011;2272;49.226;8.108;2023-03-01T08:49:34;26.80;;;15.70;;
4519;SDS011;2272;49.226;8.108;2023-03-01T08:52:01;22.73;;;13.97;;
4519;SDS011;2272;49.226;8.108;2023-03-01T08:54:28;23.77;;;14.47;;
4519;SDS011;2272;49.226;8.108;2023-03-01T08:56:55;26.73;;;14.87;;
4519;SDS011;2272;49.226;8.108;2023-03-01T08:59:24;26.40;;;14.43;;
4519;SDS011;2272;49.226;8.108;2023-03-01T09:01:51;23.40;;;14.53;;
4519;SDS011;2272;49.226;8.108;2023-03-01T09:04:19;22.47;;;14.73;;
4519;SDS011;2272;49.226;8.108;2023-03-01T09:06:46;22.83;;;13.73;;
4519;SDS011;2272;49.226;8.108;2023-03-01T09:09:13;30.60;;;17.07;;
4519;SDS011;2272;49.226;8.108;2023-03-01T09:11:41;24.93;;;15.47;;
4519;SDS011;2272;49.226;8.108;2023-03-01T09:14:11;36.53;;;16.27;;
4519;SDS011;2272;49.226;8.108;2023-03-01T09:16:38;22.47;;;14.83;;
4519;SDS011;2272;49.226;8.108;2023-03-01T09:19:04;26.77;;;15.33;;
4519;SDS011;2272;49.226;8.108;2023-03-01T09:21:33;31.93;;;16.07;;
4519;SDS011;2272;49.226;8.108;2023-03-01T09:23:59;25.70;;;16.20;;
4519;SDS011;2272;49.226;8.108;2023-03-01T09:26:26;29.70;;;16.87;;
4519;SDS011;2272;49.226;8.108;2023-03-01T09:28:55;37.10;;;14.90;;
4519;SDS011;2272;49.226;8.108;2023-03-01T09:31:23;36.67;;;14.47;;
4519;SDS011;2272;49.226;8.108;2023-03-01T09:33:51;27.57;;;15.43;;
4519;SDS011;2272;49.226;8.108;2023-03-01T09:36:19;23.30;;;14.97;;
4519;SDS011;2272;49.226;8.108;2023-03-01T09:38:48;22.93;;;14.43;;
4519;SDS011;2272;49.226;8.108;2023-03-01T09:41:26;26.43;;;15.07;;
4519;SDS011;2272;49.226;8.108;2023-03-01T09:44:13;24.77;;;15.33;;
4519;SDS011;2272;49.226;8.108;2023-03-01T09:46:46;25.67;;;13.67;;
4519;SDS011;2272;49.226;8.108;2023-03-01T09:49:14;32.60;;;17.60;;
4519;SDS011;2272;49.226;8.108;2023-03-01T09:51:47;34.37;;;16.77;;
4519;SDS011;2272;49.226;8.108;2023-03-01T09:54:23;29.27;;;16.83;;
4519;SDS011;2272;49.226;8.108;2023-03-01T09:56:53;26.53;;;16.30;;
4519;SDS011;2272;49.226;8.108;2023-03-01T09:59:33;27.33;;;15.63;;
4519;SDS011;2272;49.226;8.108;2023-03-01T10:02:16;24.70;;;15.30;;
4519;SDS011;2272;49.226;8.108;2023-03-01T10:04:49;25.33;;;16.53;;
4519;SDS011;2272;49.226;8.108;2023-03-01T10:07:21;23.00;;;15.23;;
4519;SDS011;2272;49.226;8.108;2023-03-01T10:09:55;28.20;;;16.00;;
4519;SDS011;2272;49.226;8.108;2023-03-01T10:12:24;22.13;;;15.23;;
4519;SDS011;2272;49.226;8.108;2023-03-01T10:14:55;26.00;;;15.73;;
4519;SDS011;2272;49.226;8.108;2023-03-01T10:17:28;28.40;;;16.30;;
4519;SDS011;2272;49.226;8.108;2023-03-01T10:20:05;27.17;;;15.10;;
4519;SDS011;2272;49.226;8.108;2023-03-01T10:22:42;26.63;;;15.73;;
4519;SDS011;2272;49.226;8.108;2023-03-01T10:25:13;26.60;;;15.13;;
4519;SDS011;2272;49.226;8.108;2023-03-01T10:27:42;31.07;;;17.87;;
4519;SDS011;2272;49.226;8.108;2023-03-01T10:30:17;24.47;;;16.17;;
4519;SDS011;2272;49.226;8.108;2023-03-01T10:32:47;27.70;;;15.73;;
4519;SDS011;2272;49.226;8.108;2023-03-01T10:35:17;28.90;;;16.03;;
4519;SDS011;2272;49.226;8.108;2023-03-01T10:37:56;29.77;;;16.40;;
4519;SDS011;2272;49.226;8.108;2023-03-01T10:40:25;31.40;;;15.83;;
4519;SDS011;2272;49.226;8.108;2023-03-01T10:42:52;27.70;;;15.97;;
4519;SDS011;2272;49.226;8.108;2023-03-01T10:45:30;28.80;;;15.90;;
4519;SDS011;2272;49.226;8.108;2023-03-01T10:48:03;28.93;;;16.47;;
4519;SDS011;2272;49.226;8.108;2023-03-01T10:50:32;30.60;;;17.47;;
4519;SDS011;2272;49.226;8.108;2023-03-01T10:52:59;29.97;;;16.77;;
4519;SDS011;2272;49.226;8.108;2023-03-01T10:55:29;29.60;;;17.63;;
4519;SDS011;2272;49.226;8.108;2023-03-01T10:58:06;26.37;;;17.30;;
4519;SDS011;2272;49.226;8.108;2023-03-01T11:00:45;29.10;;;16.00;;
4519;SDS011;2272;49.226;8.108;2023-03-01T11:03:14;30.47;;;16.33;;
4519;SDS011;2272;49.226;8.108;2023-03-01T11:05:52;29.00;;;16.77;;
4519;SDS011;2272;49.226;8.108;2023-03-01T11:08:29;27.20;;;16.63;;
4519;SDS011;2272;49.226;8.108;2023-03-01T11:11:05;37.10;;;18.07;;
4519;SDS011;2272;49.226;8.108;2023-03-01T11:13:38;30.87;;;16.77;;
4519;SDS011;2272;49.226;8.108;2023-03-01T11:16:28;23.47;;;15.80;;
4519;SDS011;2272;49.226;8.108;2023-03-01T11:19:00;27.67;;;16.57;;
4519;SDS011;2272;49.226;8.108;2023-03-01T11:21:40;25.27;;;17.40;;
4519;SDS011;2272;49.226;8.108;2023-03-01T11:24:09;32.90;;;18.30;;
4519;SDS011;2272;49.226;8.108;2023-03-01T11:26:40;35.47;;;17.67;;
4519;SDS011;2272;49.226;8.108;2023-03-01T11:29:12;31.43;;;17.10;;
4519;SDS011;2272;49.226;8.108;2023-03-01T11:31:43;27.33;;;17.03;;
4519;SDS011;2272;49.226;8.108;2023-03-01T11:34:12;31.63;;;16.30;;
4519;SDS011;2272;49.226;8.108;2023-03-01T11:36:43;25.53;;;16.53;;
4519;SDS011;2272;49.226;8.108;2023-03-01T11:39:17;28.83;;;18.17;;
4519;SDS011;2272;49.226;8.108;2023-03-01T11:41:52;30.10;;;17.67;;
4519;SDS011;2272;49.226;8.108;2023-03-01T11:44:26;33.03;;;16.90;;
4519;SDS011;2272;49.226;8.108;2023-03-01T11:49:50;26.37;;;16.80;;
4519;SDS011;2272;49.226;8.108;2023-03-01T11:52:28;26.17;;;17.87;;
4519;SDS011;2272;49.226;8.108;2023-03-01T11:55:07;27.90;;;16.80;;
4519;SDS011;2272;49.226;8.108;2023-03-01T11:57:52;27.30;;;16.77;;
4519;SDS011;2272;49.226;8.108;2023-03-01T12:00:37;28.00;;;17.07;;
4519;SDS011;2272;49.226;8.108;2023-03-01T12:03:26;24.37;;;16.23;;
4519;SDS011;2272;49.226;8.108;2023-03-01T12:06:12;31.27;;;16.17;;
4519;SDS011;2272;49.226;8.108;2023-03-01T12:08:53;33.00;;;16.40;;
4519;SDS011;2272;49.226;8.108;2023-03-01T12:11:30;31.43;;;18.00;;
4519;SDS011;2272;49.226;8.108;2023-03-01T12:14:20;36.80;;;17.10;;
4519;SDS011;2272;49.226;8.108;2023-03-01T12:17:06;29.27;;;17.70;;
4519;SDS011;2272;49.226;8.108;2023-03-01T12:19:46;32.97;;;17.40;;
4519;SDS011;2272;49.226;8.108;2023-03-01T12:22:29;30.93;;;17.20;;
4519;SDS011;2272;49.226;8.108;2023-03-01T12:25:04;28.10;;;17.10;;
4519;SDS011;2272;49.226;8.108;2023-03-01T12:27:47;26.10;;;15.83;;
4519;SDS011;2272;49.226;8.108;2023-03-01T12:31:03;30.30;;;17.83;;
4519;SDS011;2272;49.226;8.108;2023-03-01T12:33:45;30.40;;;16.03;;
4519;SDS011;2272;49.226;8.108;2023-03-01T12:36:31;27.07;;;17.40;;
4519;SDS011;2272;49.226;8.108;2023-03-01T12:39:11;24.80;;;14.90;;
4519;SDS011;2272;49.226;8.108;2023-03-01T12:41:51;28.40;;;16.43;;
4519;SDS011;2272;49.226;8.108;2023-03-01T12:44:28;28.97;;;15.77;;
4519;SDS011;2272;49.226;8.108;2023-03-01T12:47:22;25.40;;;16.07;;
4519;SDS011;2272;49.226;8.108;2023-03-01T12:50:02;30.07;;;18.10;;
4519;SDS011;2272;49.226;8.108;2023-03-01T12:52:33;28.70;;;17.30;;
4519;SDS011;2272;49.226;8.108;2023-03-01T12:55:06;26.47;;;16.83;;
4519;SDS011;2272;49.226;8.108;2023-03-01T12:57:53;33.03;;;17.10;;
4519;SDS011;2272;49.226;8.108;2023-03-01T13:00:27;40.30;;;17.67;;
4519;SDS011;2272;49.226;8.108;2023-03-01T13:03:03;34.63;;;17.03;;
4519;SDS011;2272;49.226;8.108;2023-03-01T13:05:39;23.97;;;16.03;;
4519;SDS011;2272;49.226;8.108;2023-03-01T13:08:14;30.30;;;18.67;;
4519;SDS011;2272;49.226;8.108;2023-03-01T13:10:46;27.87;;;17.30;;
4519;SDS011;2272;49.226;8.108;2023-03-01T13:13:19;26.20;;;15.43;;
4519;SDS011;2272;49.226;8.108;2023-03-01T13:15:47;30.80;;;17.13;;
4519;SDS011;2272;49.226;8.108;2023-03-01T13:18:33;30.80;;;17.73;;
4519;SDS011;2272;49.226;8.108;2023-03-01T13:21:00;31.47;;;17.60;;
4519;SDS011;2272;49.226;8.108;2023-03-01T13:23:30;27.03;;;16.90;;
4519;SDS011;2272;49.226;8.108;2023-03-01T13:26:08;26.57;;;16.43;;
4519;SDS011;2272;49.226;8.108;2023-03-01T13:28:47;30.80;;;16.50;;
4519;SDS011;2272;49.226;8.108;2023-03-01T13:43:29;26.90;;;16.10;;
4519;SDS011;2272;49.226;8.108;2023-03-01T13:45:58;26.30;;;16.53;;
4519;SDS011;2272;49.226;8.108;2023-03-01T13:48:27;30.00;;;16.40;;
4519;SDS011;2272;49.226;8.108;2023-03-01T13:50:57;24.67;;;16.57;;
4519;SDS011;2272;49.226;8.108;2023-03-01T13:53:28;24.60;;;15.27;;
4519;SDS011;2272;49.226;8.108;2023-03-01T13:56:00;32.67;;;17.60;;
4519;SDS011;2272;49.226;8.108;2023-03-01T13:58:29;25.80;;;16.17;;
4519;SDS011;2272;49.226;8.108;2023-03-01T14:00:58;24.67;;;16.53;;
4519;SDS011;2272;49.226;8.108;2023-03-01T14:03:26;31.10;;;19.40;;
4519;SDS011;2272;49.226;8.108;2023-03-01T14:05:59;25.57;;;15.90;;
4519;SDS011;2272;49.226;8.108;2023-03-01T14:08:28;25.00;;;16.90;;
4519;SDS011;2272;49.226;8.108;2023-03-01T14:11:03;28.80;;;16.73;;
4519;SDS011;2272;49.226;8.108;2023-03-01T14:14:00;23.80;;;14.40;;
4519;SDS011;2272;49.226;8.108;2023-03-01T14:16:42;24.80;;;14.73;;
4519;SDS011;2272;49.226;8.108;2023-03-01T14:19:16;25.10;;;16.20;;
4519;SDS011;2272;49.226;8.108;2023-03-01T14:21:47;26.87;;;15.90;;
4519;SDS011;2272;49.226;8.108;2023-03-01T14:24:16;25.50;;;15.83;;
4519;SDS011;2272;49.226;8.108;2023-03-01T14:26:45;25.10;;;15.60;;
4519;SDS011;2272;49.226;8.108;2023-03-01T14:29:25;23.17;;;15.33;;
4519;SDS011;2272;49.226;8.108;2023-03-01T14:31:53;25.27;;;13.80;;
4519;SDS011;2272;49.226;8.108;2023-03-01T14:34:21;30.17;;;15.63;;
4519;SDS011;2272;49.226;8.108;2023-03-01T14:36:50;29.03;;;14.10;;
4519;SDS011;2272;49.226;8.108;2023-03-01T14:39:18;23.93;;;16.00;;
4519;SDS011;2272;49.226;8.108;2023-03-01T14:41:46;25.57;;;13.80;;
4519;SDS011;2272;49.226;8.108;2023-03-01T14:44:14;20.23;;;14.90;;
4519;SDS011;2272;49.226;8.108;2023-03-01T14:46:44;23.23;;;15.57;;
4519;SDS011;2272;49.226;8.108;2023-03-01T14:49:12;23.70;;;14.00;;
4519;SDS011;2272;49.226;8.108;2023-03-01T14:51:41;33.10;;;17.10;;
4519;SDS011;2272;49.226;8.108;2023-03-01T14:54:18;23.13;;;15.17;;
4519;SDS011;2272;49.226;8.108;2023-03-01T14:56:48;21.13;;;14.70;;
4519;SDS011;2272;49.226;8.108;2023-03-01T14:59:18;26.40;;;15.73;;
4519;SDS011;2272;49.226;8.108;2023-03-01T15:01:47;23.33;;;13.47;;
4519;SDS011;2272;49.226;8.108;2023-03-01T15:04:14;20.43;;;14.23;;
4519;SDS011;2272;49.226;8.108;2023-03-01T15:06:41;24.03;;;13.47;;
4519;SDS011;2272;49.226;8.108;2023-03-01T15:09:11;20.50;;;13.87;;
4519;SDS011;2272;49.226;8.108;2023-03-01T15:11:42;18.93;;;12.53;;
4519;SDS011;2272;49.226;8.108;2023-03-01T15:14:26;26.57;;;14.10;;
4519;SDS011;2272;49.226;8.108;2023-03-01T15:17:14;26.33;;;14.53;;
4519;SDS011;2272;49.226;8.108;2023-03-01T15:19:47;19.47;;;12.90;;
4519;SDS011;2272;49.226;8.108;2023-03-01T15:22:14;24.77;;;12.87;;